Terminal Aerodrome Forecast
Issued by NWS

Current Version | Previous Version | Text Only | Print | Product List | Glossary Off
Versions: 1 2 3 4 5 6 7 8 9 10 11 12 13 14 15 16 17 18 19 20 21

000
FTUS41 KILN 171100
TAFLUK
TAF
KLUK 171134Z 1712/1812 18008KT P6SM SCT011 SCT250
      TEMPO 1712/1714 BKN011
     FM171500 24011G20KT P6SM SCT040 BKN250
      TEMPO 1720/1724 OVC040
     FM180000 28008KT P6SM OVC028=

USA.gov is the U.S. government's official web portal to all federal, state and local government web resources and services.